sensor_id;sensor_type;location;lat;lon;timestamp;temperature;humidity
68485;DHT22;55472;50.060;21.960;2023-04-07T00:01:44;-0.10;99.90
68485;DHT22;55472;50.060;21.960;2023-04-07T00:04:10;0.00;99.90
68485;DHT22;55472;50.060;21.960;2023-04-07T00:06:36;-0.10;99.90
68485;DHT22;55472;50.060;21.960;2023-04-07T00:09:02;-0.10;99.90
68485;DHT22;55472;50.060;21.960;2023-04-07T00:11:28;-0.10;99.90
68485;DHT22;55472;50.060;21.960;2023-04-07T00:13:54;0.00;99.90
68485;DHT22;55472;50.060;21.960;2023-04-07T00:16:21;-0.10;99.90
68485;DHT22;55472;50.060;21.960;2023-04-07T00:18:47;0.00;99.90
68485;DHT22;55472;50.060;21.960;2023-04-07T00:21:13;0.00;99.90
68485;DHT22;55472;50.060;21.960;2023-04-07T00:23:39;0.00;99.90
68485;DHT22;55472;50.060;21.960;2023-04-07T00:26:05;0.00;99.90
68485;DHT22;55472;50.060;21.960;2023-04-07T00:28:31;-0.10;99.90
68485;DHT22;55472;50.060;21.960;2023-04-07T00:30:58;-0.10;99.90
68485;DHT22;55472;50.060;21.960;2023-04-07T00:33:24;-0.10;99.90
68485;DHT22;55472;50.060;21.960;2023-04-07T00:35:50;0.00;99.90
68485;DHT22;55472;50.060;21.960;2023-04-07T00:38:19;0.00;99.90
68485;DHT22;55472;50.060;21.960;2023-04-07T00:40:45;0.00;99.90
68485;DHT22;55472;50.060;21.960;2023-04-07T00:43:11;0.00;99.90
68485;DHT22;55472;50.060;21.960;2023-04-07T00:45:37;0.00;99.90
68485;DHT22;55472;50.060;21.960;2023-04-07T00:48:04;-0.10;99.90
68485;DHT22;55472;50.060;21.960;2023-04-07T00:50:30;0.00;99.90
68485;DHT22;55472;50.060;21.960;2023-04-07T00:52:56;0.00;99.90
68485;DHT22;55472;50.060;21.960;2023-04-07T00:55:23;-0.10;99.90
68485;DHT22;55472;50.060;21.960;2023-04-07T00:57:49;-0.10;99.90
68485;DHT22;55472;50.060;21.960;2023-04-07T01:00:16;-0.10;99.90
68485;DHT22;55472;50.060;21.960;2023-04-07T01:02:52;-0.10;99.90
68485;DHT22;55472;50.060;21.960;2023-04-07T01:05:34;0.00;99.90
68485;DHT22;55472;50.060;21.960;2023-04-07T01:11:29;0.00;99.90
68485;DHT22;55472;50.060;21.960;2023-04-07T01:13:59;-0.10;99.90
68485;DHT22;55472;50.060;21.960;2023-04-07T01:16:30;-0.10;99.90
68485;DHT22;55472;50.060;21.960;2023-04-07T01:19:02;0.00;99.90
68485;DHT22;55472;50.060;21.960;2023-04-07T01:21:34;0.00;99.90
68485;DHT22;55472;50.060;21.960;2023-04-07T01:27:14;0.00;99.90
68485;DHT22;55472;50.060;21.960;2023-04-07T01:29:43;0.00;99.90
68485;DHT22;55472;50.060;21.960;2023-04-07T01:32:13;0.00;99.90
68485;DHT22;55472;50.060;21.960;2023-04-07T01:34:41;0.00;99.90
68485;DHT22;55472;50.060;21.960;2023-04-07T01:37:07;0.00;99.90
68485;DHT22;55472;50.060;21.960;2023-04-07T01:39:34;0.00;99.90
68485;DHT22;55472;50.060;21.960;2023-04-07T01:42:03;0.00;99.90
68485;DHT22;55472;50.060;21.960;2023-04-07T01:44:32;0.00;99.90
68485;DHT22;55472;50.060;21.960;2023-04-07T01:46:59;0.00;99.90
68485;DHT22;55472;50.060;21.960;2023-04-07T01:49:28;0.00;99.90
68485;DHT22;55472;50.060;21.960;2023-04-07T01:51:56;0.00;99.90
68485;DHT22;55472;50.060;21.960;2023-04-07T01:54:23;0.00;99.90
68485;DHT22;55472;50.060;21.960;2023-04-07T01:56:49;0.00;99.90
68485;DHT22;55472;50.060;21.960;2023-04-07T01:59:15;0.00;99.90
68485;DHT22;55472;50.060;21.960;2023-04-07T02:01:42;0.00;99.90
68485;DHT22;55472;50.060;21.960;2023-04-07T02:06:59;0.00;99.90
68485;DHT22;55472;50.060;21.960;2023-04-07T02:09:29;0.00;99.90
68485;DHT22;55472;50.060;21.960;2023-04-07T02:11:59;0.00;99.90
68485;DHT22;55472;50.060;21.960;2023-04-07T02:14:27;0.00;99.90
68485;DHT22;55472;50.060;21.960;2023-04-07T02:16:54;0.00;99.90
68485;DHT22;55472;50.060;21.960;2023-04-07T02:19:21;0.00;99.90
68485;DHT22;55472;50.060;21.960;2023-04-07T02:21:47;0.10;99.90
68485;DHT22;55472;50.060;21.960;2023-04-07T02:24:18;0.00;99.90
68485;DHT22;55472;50.060;21.960;2023-04-07T02:26:46;0.10;99.90
68485;DHT22;55472;50.060;21.960;2023-04-07T02:29:13;0.00;99.90
68485;DHT22;55472;50.060;21.960;2023-04-07T02:31:39;0.10;99.90
68485;DHT22;55472;50.060;21.960;2023-04-07T02:34:05;0.00;99.90
68485;DHT22;55472;50.060;21.960;2023-04-07T02:36:31;0.00;99.90
68485;DHT22;55472;50.060;21.960;2023-04-07T02:38:57;0.00;99.90
68485;DHT22;55472;50.060;21.960;2023-04-07T02:41:24;0.00;99.90
68485;DHT22;55472;50.060;21.960;2023-04-07T02:43:50;0.00;99.90
68485;DHT22;55472;50.060;21.960;2023-04-07T02:46:17;0.00;99.90
68485;DHT22;55472;50.060;21.960;2023-04-07T02:48:43;0.00;99.90
68485;DHT22;55472;50.060;21.960;2023-04-07T02:51:09;0.00;99.90
68485;DHT22;55472;50.060;21.960;2023-04-07T02:53:35;0.00;99.90
68485;DHT22;55472;50.060;21.960;2023-04-07T02:56:01;0.00;99.90
68485;DHT22;55472;50.060;21.960;2023-04-07T02:58:27;0.10;99.90
68485;DHT22;55472;50.060;21.960;2023-04-07T03:00:53;0.00;99.90
68485;DHT22;55472;50.060;21.960;2023-04-07T03:03:19;0.00;99.90
68485;DHT22;55472;50.060;21.960;2023-04-07T03:05:46;0.00;99.90
68485;DHT22;55472;50.060;21.960;2023-04-07T03:08:12;0.00;99.90
68485;DHT22;55472;50.060;21.960;2023-04-07T03:10:38;0.00;99.90
68485;DHT22;55472;50.060;21.960;2023-04-07T03:13:04;0.00;99.90
68485;DHT22;55472;50.060;21.960;2023-04-07T03:15:31;0.00;99.90
68485;DHT22;55472;50.060;21.960;2023-04-07T03:17:57;0.00;99.90
68485;DHT22;55472;50.060;21.960;2023-04-07T03:20:23;0.00;99.90
68485;DHT22;55472;50.060;21.960;2023-04-07T03:22:49;0.00;99.90
68485;DHT22;55472;50.060;21.960;2023-04-07T03:25:15;0.00;99.90
68485;DHT22;55472;50.060;21.960;2023-04-07T03:27:41;0.00;99.90
68485;DHT22;55472;50.060;21.960;2023-04-07T03:30:09;0.00;99.90
68485;DHT22;55472;50.060;21.960;2023-04-07T03:32:35;0.00;99.90
68485;DHT22;55472;50.060;21.960;2023-04-07T03:35:02;0.00;99.90
68485;DHT22;55472;50.060;21.960;2023-04-07T03:37:28;0.00;99.90
68485;DHT22;55472;50.060;21.960;2023-04-07T03:39:54;0.00;99.90
68485;DHT22;55472;50.060;21.960;2023-04-07T03:42:20;0.00;99.90
68485;DHT22;55472;50.060;21.960;2023-04-07T03:44:46;0.00;99.90
68485;DHT22;55472;50.060;21.960;2023-04-07T03:47:12;0.00;99.90
68485;DHT22;55472;50.060;21.960;2023-04-07T03:49:39;0.00;99.90
68485;DHT22;55472;50.060;21.960;2023-04-07T03:52:05;0.00;99.90
68485;DHT22;55472;50.060;21.960;2023-04-07T03:54:31;0.10;99.90
68485;DHT22;55472;50.060;21.960;2023-04-07T03:57:00;0.10;99.90
68485;DHT22;55472;50.060;21.960;2023-04-07T03:59:27;0.00;99.90
68485;DHT22;55472;50.060;21.960;2023-04-07T04:01:53;0.10;99.90
68485;DHT22;55472;50.060;21.960;2023-04-07T04:04:20;0.00;99.90
68485;DHT22;55472;50.060;21.960;2023-04-07T04:06:46;0.00;99.90
68485;DHT22;55472;50.060;21.960;2023-04-07T04:09:12;0.10;99.90
68485;DHT22;55472;50.060;21.960;2023-04-07T04:11:39;0.00;99.90
68485;DHT22;55472;50.060;21.960;2023-04-07T04:14:05;0.00;99.90
68485;DHT22;55472;50.060;21.960;2023-04-07T04:16:31;0.10;99.90
68485;DHT22;55472;50.060;21.960;2023-04-07T04:19:00;0.00;99.90
68485;DHT22;55472;50.060;21.960;2023-04-07T04:21:26;0.10;99.90
68485;DHT22;55472;50.060;21.960;2023-04-07T04:23:52;0.10;99.90
68485;DHT22;55472;50.060;21.960;2023-04-07T04:26:19;0.10;99.90
68485;DHT22;55472;50.060;21.960;2023-04-07T04:28:46;0.10;99.90
68485;DHT22;55472;50.060;21.960;2023-04-07T04:31:11;0.10;99.90
68485;DHT22;55472;50.060;21.960;2023-04-07T04:33:38;0.10;99.90
68485;DHT22;55472;50.060;21.960;2023-04-07T04:36:04;0.10;99.90
68485;DHT22;55472;50.060;21.960;2023-04-07T04:38:30;0.10;99.90
68485;DHT22;55472;50.060;21.960;2023-04-07T04:40:57;0.10;99.90
68485;DHT22;55472;50.060;21.960;2023-04-07T04:43:24;0.10;99.90
68485;DHT22;55472;50.060;21.960;2023-04-07T04:45:50;0.10;99.90
68485;DHT22;55472;50.060;21.960;2023-04-07T04:48:16;0.10;99.90
68485;DHT22;55472;50.060;21.960;2023-04-07T04:50:43;0.10;99.90
68485;DHT22;55472;50.060;21.960;2023-04-07T04:53:09;0.10;99.90
68485;DHT22;55472;50.060;21.960;2023-04-07T04:55:35;0.10;99.90
68485;DHT22;55472;50.060;21.960;2023-04-07T04:58:01;0.20;99.90
68485;DHT22;55472;50.060;21.960;2023-04-07T05:00:27;0.20;99.90
68485;DHT22;55472;50.060;21.960;2023-04-07T05:02:54;0.20;99.90
68485;DHT22;55472;50.060;21.960;2023-04-07T05:05:20;0.20;99.90
68485;DHT22;55472;50.060;21.960;2023-04-07T05:07:46;0.20;99.90
68485;DHT22;55472;50.060;21.960;2023-04-07T05:10:12;0.20;99.90
68485;DHT22;55472;50.060;21.960;2023-04-07T05:12:39;0.20;99.90
68485;DHT22;55472;50.060;21.960;2023-04-07T05:15:05;0.20;99.90
68485;DHT22;55472;50.060;21.960;2023-04-07T05:17:32;0.20;99.90
68485;DHT22;55472;50.060;21.960;2023-04-07T05:19:58;0.30;99.90
68485;DHT22;55472;50.060;21.960;2023-04-07T05:22:24;0.30;99.90
68485;DHT22;55472;50.060;21.960;2023-04-07T05:24:50;0.30;99.90
68485;DHT22;55472;50.060;21.960;2023-04-07T05:27:17;0.30;99.90
68485;DHT22;55472;50.060;21.960;2023-04-07T05:29:43;0.30;99.90
68485;DHT22;55472;50.060;21.960;2023-04-07T05:32:09;0.30;99.90
68485;DHT22;55472;50.060;21.960;2023-04-07T05:34:35;0.30;99.90
68485;DHT22;55472;50.060;21.960;2023-04-07T05:37:01;0.30;99.90
68485;DHT22;55472;50.060;21.960;2023-04-07T05:39:27;0.30;99.90
68485;DHT22;55472;50.060;21.960;2023-04-07T05:41:53;0.30;99.90
68485;DHT22;55472;50.060;21.960;2023-04-07T05:44:21;0.30;99.90
68485;DHT22;55472;50.060;21.960;2023-04-07T05:46:48;0.40;99.90
68485;DHT22;55472;50.060;21.960;2023-04-07T05:49:14;0.40;99.90
68485;DHT22;55472;50.060;21.960;2023-04-07T05:51:40;0.40;99.90
68485;DHT22;55472;50.060;21.960;2023-04-07T05:54:06;0.40;99.90
68485;DHT22;55472;50.060;21.960;2023-04-07T05:56:32;0.40;99.90
68485;DHT22;55472;50.060;21.960;2023-04-07T05:58:58;0.40;99.90
68485;DHT22;55472;50.060;21.960;2023-04-07T06:01:27;0.50;99.90
68485;DHT22;55472;50.060;21.960;2023-04-07T06:03:53;0.50;99.90
68485;DHT22;55472;50.060;21.960;2023-04-07T06:06:20;0.50;99.90
68485;DHT22;55472;50.060;21.960;2023-04-07T06:08:46;0.60;99.90
68485;DHT22;55472;50.060;21.960;2023-04-07T06:11:12;0.60;99.90
68485;DHT22;55472;50.060;21.960;2023-04-07T06:13:39;0.60;99.90
68485;DHT22;55472;50.060;21.960;2023-04-07T06:16:05;0.60;99.90
68485;DHT22;55472;50.060;21.960;2023-04-07T06:18:31;0.60;99.90
68485;DHT22;55472;50.060;21.960;2023-04-07T06:20:57;0.70;99.90
68485;DHT22;55472;50.060;21.960;2023-04-07T06:23:23;0.70;99.90
68485;DHT22;55472;50.060;21.960;2023-04-07T06:25:50;0.70;99.90
68485;DHT22;55472;50.060;21.960;2023-04-07T06:28:18;0.70;99.90
68485;DHT22;55472;50.060;21.960;2023-04-07T06:30:44;0.70;99.90
68485;DHT22;55472;50.060;21.960;2023-04-07T06:33:11;0.70;99.90
68485;DHT22;55472;50.060;21.960;2023-04-07T06:35:39;0.70;99.90
68485;DHT22;55472;50.060;21.960;2023-04-07T06:38:06;0.70;99.90
68485;DHT22;55472;50.060;21.960;2023-04-07T06:40:32;0.70;99.90
68485;DHT22;55472;50.060;21.960;2023-04-07T06:42:58;0.70;99.90
68485;DHT22;55472;50.060;21.960;2023-04-07T06:45:24;0.80;99.90
68485;DHT22;55472;50.060;21.960;2023-04-07T06:47:50;0.80;99.90
68485;DHT22;55472;50.060;21.960;2023-04-07T06:50:17;0.80;99.90
68485;DHT22;55472;50.060;21.960;2023-04-07T06:52:45;0.80;99.90
68485;DHT22;55472;50.060;21.960;2023-04-07T06:55:11;0.80;99.90
68485;DHT22;55472;50.060;21.960;2023-04-07T06:57:37;0.80;99.90
68485;DHT22;55472;50.060;21.960;2023-04-07T07:00:04;0.80;99.90
68485;DHT22;55472;50.060;21.960;2023-04-07T07:02:32;0.80;99.90
68485;DHT22;55472;50.060;21.960;2023-04-07T07:05:00;0.80;99.90
68485;DHT22;55472;50.060;21.960;2023-04-07T07:07:28;0.80;99.90
68485;DHT22;55472;50.060;21.960;2023-04-07T07:09:54;0.90;99.90
68485;DHT22;55472;50.060;21.960;2023-04-07T07:12:20;0.80;99.90
68485;DHT22;55472;50.060;21.960;2023-04-07T07:14:47;0.90;99.90
68485;DHT22;55472;50.060;21.960;2023-04-07T07:17:13;0.90;99.90
68485;DHT22;55472;50.060;21.960;2023-04-07T07:19:39;0.90;99.90
68485;DHT22;55472;50.060;21.960;2023-04-07T07:22:05;1.00;99.90
68485;DHT22;55472;50.060;21.960;2023-04-07T07:24:31;1.00;99.90
68485;DHT22;55472;50.060;21.960;2023-04-07T07:26:59;1.10;99.90
68485;DHT22;55472;50.060;21.960;2023-04-07T07:29:27;1.10;99.90
68485;DHT22;55472;50.060;21.960;2023-04-07T07:31:54;1.20;99.90
68485;DHT22;55472;50.060;21.960;2023-04-07T07:34:20;1.20;99.90
68485;DHT22;55472;50.060;21.960;2023-04-07T07:36:46;1.30;99.90
68485;DHT22;55472;50.060;21.960;2023-04-07T07:39:12;1.40;99.90
68485;DHT22;55472;50.060;21.960;2023-04-07T07:41:39;1.40;99.90
68485;DHT22;55472;50.060;21.960;2023-04-07T07:44:06;1.50;99.90
68485;DHT22;55472;50.060;21.960;2023-04-07T07:46:32;1.50;99.90
68485;DHT22;55472;50.060;21.960;2023-04-07T07:48:59;1.50;99.90
68485;DHT22;55472;50.060;21.960;2023-04-07T07:51:25;1.60;99.90
68485;DHT22;55472;50.060;21.960;2023-04-07T07:53:52;1.60;99.90
68485;DHT22;55472;50.060;21.960;2023-04-07T07:56:18;1.60;99.90
68485;DHT22;55472;50.060;21.960;2023-04-07T07:58:45;1.60;99.90
68485;DHT22;55472;50.060;21.960;2023-04-07T08:01:11;1.60;99.90
68485;DHT22;55472;50.060;21.960;2023-04-07T08:03:38;1.60;99.90
68485;DHT22;55472;50.060;21.960;2023-04-07T08:06:04;1.60;99.90
68485;DHT22;55472;50.060;21.960;2023-04-07T08:08:31;1.60;99.90
68485;DHT22;55472;50.060;21.960;2023-04-07T08:10:57;1.60;99.90
68485;DHT22;55472;50.060;21.960;2023-04-07T08:13:23;1.60;99.90
68485;DHT22;55472;50.060;21.960;2023-04-07T08:15:49;1.70;99.90
68485;DHT22;55472;50.060;21.960;2023-04-07T08:18:16;1.70;99.90
68485;DHT22;55472;50.060;21.960;2023-04-07T08:20:42;1.60;99.90
68485;DHT22;55472;50.060;21.960;2023-04-07T08:23:08;1.70;99.90
68485;DHT22;55472;50.060;21.960;2023-04-07T08:25:34;1.70;99.90
68485;DHT22;55472;50.060;21.960;2023-04-07T08:28:00;1.70;99.90
68485;DHT22;55472;50.060;21.960;2023-04-07T08:30:26;1.70;99.90
68485;DHT22;55472;50.060;21.960;2023-04-07T08:32:52;1.70;99.90
68485;DHT22;55472;50.060;21.960;2023-04-07T08:35:19;1.70;99.90
68485;DHT22;55472;50.060;21.960;2023-04-07T08:37:47;1.70;99.90
68485;DHT22;55472;50.060;21.960;2023-04-07T08:40:14;1.70;99.90
68485;DHT22;55472;50.060;21.960;2023-04-07T08:42:44;1.70;99.90
68485;DHT22;55472;50.060;21.960;2023-04-07T08:45:12;1.70;99.90
68485;DHT22;55472;50.060;21.960;2023-04-07T08:47:39;1.70;99.90
68485;DHT22;55472;50.060;21.960;2023-04-07T08:50:10;1.70;99.90
68485;DHT22;55472;50.060;21.960;2023-04-07T08:52:50;1.80;99.90
68485;DHT22;55472;50.060;21.960;2023-04-07T08:55:36;1.80;99.90
68485;DHT22;55472;50.060;21.960;2023-04-07T08:58:08;1.80;99.90
68485;DHT22;55472;50.060;21.960;2023-04-07T09:00:42;1.80;99.90
68485;DHT22;55472;50.060;21.960;2023-04-07T09:03:11;1.80;99.90
68485;DHT22;55472;50.060;21.960;2023-04-07T09:05:38;1.80;99.90
68485;DHT22;55472;50.060;21.960;2023-04-07T09:08:04;1.80;99.60
68485;DHT22;55472;50.060;21.960;2023-04-07T09:10:31;1.80;99.40
68485;DHT22;55472;50.060;21.960;2023-04-07T09:12:58;1.90;99.50
68485;DHT22;55472;50.060;21.960;2023-04-07T09:15:29;1.90;99.70
68485;DHT22;55472;50.060;21.960;2023-04-07T09:17:57;1.90;99.80
68485;DHT22;55472;50.060;21.960;2023-04-07T09:20:24;1.90;99.90
68485;DHT22;55472;50.060;21.960;2023-04-07T09:22:50;2.00;99.90
68485;DHT22;55472;50.060;21.960;2023-04-07T09:25:17;2.00;99.90
68485;DHT22;55472;50.060;21.960;2023-04-07T09:28:04;2.00;99.90
68485;DHT22;55472;50.060;21.960;2023-04-07T09:30:31;2.10;99.90
68485;DHT22;55472;50.060;21.960;2023-04-07T09:32:59;2.10;99.90
68485;DHT22;55472;50.060;21.960;2023-04-07T09:35:26;2.10;99.90
68485;DHT22;55472;50.060;21.960;2023-04-07T09:38:11;2.10;99.70
68485;DHT22;55472;50.060;21.960;2023-04-07T09:40:37;2.10;99.30
68485;DHT22;55472;50.060;21.960;2023-04-07T09:43:04;2.10;99.20
68485;DHT22;55472;50.060;21.960;2023-04-07T09:45:31;2.10;99.20
68485;DHT22;55472;50.060;21.960;2023-04-07T09:48:07;2.10;99.60
68485;DHT22;55472;50.060;21.960;2023-04-07T09:50:43;2.10;99.40
68485;DHT22;55472;50.060;21.960;2023-04-07T09:53:17;2.10;99.30
68485;DHT22;55472;50.060;21.960;2023-04-07T09:55:48;2.20;99.10
68485;DHT22;55472;50.060;21.960;2023-04-07T09:58:15;2.10;99.00
68485;DHT22;55472;50.060;21.960;2023-04-07T10:00:41;2.10;98.80
68485;DHT22;55472;50.060;21.960;2023-04-07T10:03:08;2.10;98.60
68485;DHT22;55472;50.060;21.960;2023-04-07T10:05:35;2.10;98.70
68485;DHT22;55472;50.060;21.960;2023-04-07T10:08:02;2.10;98.80
68485;DHT22;55472;50.060;21.960;2023-04-07T10:10:31;2.10;98.80
68485;DHT22;55472;50.060;21.960;2023-04-07T10:12:58;2.10;98.80
68485;DHT22;55472;50.060;21.960;2023-04-07T10:15:24;2.10;98.60
68485;DHT22;55472;50.060;21.960;2023-04-07T10:17:50;2.10;98.30
68485;DHT22;55472;50.060;21.960;2023-04-07T10:20:18;2.10;98.50
68485;DHT22;55472;50.060;21.960;2023-04-07T10:22:49;2.00;98.40
68485;DHT22;55472;50.060;21.960;2023-04-07T10:25:18;2.10;98.50
68485;DHT22;55472;50.060;21.960;2023-04-07T10:28:00;2.00;98.40
68485;DHT22;55472;50.060;21.960;2023-04-07T10:30:31;2.00;98.60
68485;DHT22;55472;50.060;21.960;2023-04-07T10:32:58;2.10;98.60
68485;DHT22;55472;50.060;21.960;2023-04-07T10:35:24;2.10;98.70
68485;DHT22;55472;50.060;21.960;2023-04-07T10:40:42;2.10;98.80
68485;DHT22;55472;50.060;21.960;2023-04-07T10:43:10;2.10;99.00
68485;DHT22;55472;50.060;21.960;2023-04-07T10:48:16;2.10;98.80
68485;DHT22;55472;50.060;21.960;2023-04-07T10:50:44;2.10;98.80
68485;DHT22;55472;50.060;21.960;2023-04-07T10:53:15;2.10;98.80
68485;DHT22;55472;50.060;21.960;2023-04-07T10:55:42;2.10;99.00
68485;DHT22;55472;50.060;21.960;2023-04-07T11:03:37;2.10;99.30
68485;DHT22;55472;50.060;21.960;2023-04-07T11:06:11;2.10;99.50
68485;DHT22;55472;50.060;21.960;2023-04-07T11:08:40;2.20;99.30
68485;DHT22;55472;50.060;21.960;2023-04-07T11:11:08;2.20;99.20
68485;DHT22;55472;50.060;21.960;2023-04-07T11:13:49;2.20;99.00
68485;DHT22;55472;50.060;21.960;2023-04-07T11:16:17;2.20;99.10
68485;DHT22;55472;50.060;21.960;2023-04-07T11:18:46;2.30;99.50
68485;DHT22;55472;50.060;21.960;2023-04-07T11:21:18;2.30;99.90
68485;DHT22;55472;50.060;21.960;2023-04-07T11:23:45;2.40;99.90
68485;DHT22;55472;50.060;21.960;2023-04-07T11:26:13;2.50;99.90
68485;DHT22;55472;50.060;21.960;2023-04-07T11:28:56;2.50;99.90
68485;DHT22;55472;50.060;21.960;2023-04-07T11:31:28;2.60;99.70
68485;DHT22;55472;50.060;21.960;2023-04-07T11:34:01;2.60;99.60
68485;DHT22;55472;50.060;21.960;2023-04-07T11:36:31;2.60;99.40
68485;DHT22;55472;50.060;21.960;2023-04-07T11:39:03;2.60;98.90
68485;DHT22;55472;50.060;21.960;2023-04-07T11:41:31;2.50;98.70
68485;DHT22;55472;50.060;21.960;2023-04-07T11:44:05;2.50;98.70
68485;DHT22;55472;50.060;21.960;2023-04-07T11:46:32;2.60;99.10
68485;DHT22;55472;50.060;21.960;2023-04-07T11:49:13;2.60;99.30
68485;DHT22;55472;50.060;21.960;2023-04-07T11:51:42;2.60;99.20
68485;DHT22;55472;50.060;21.960;2023-04-07T11:54:09;2.60;99.20
68485;DHT22;55472;50.060;21.960;2023-04-07T11:56:43;2.60;99.00
68485;DHT22;55472;50.060;21.960;2023-04-07T11:59:22;2.60;98.20
68485;DHT22;55472;50.060;21.960;2023-04-07T12:01:50;2.60;98.50
68485;DHT22;55472;50.060;21.960;2023-04-07T12:04:18;2.70;98.60
68485;DHT22;55472;50.060;21.960;2023-04-07T12:06:45;2.70;98.70
68485;DHT22;55472;50.060;21.960;2023-04-07T12:09:27;2.70;98.70
68485;DHT22;55472;50.060;21.960;2023-04-07T12:11:56;2.70;98.80
68485;DHT22;55472;50.060;21.960;2023-04-07T12:14:26;2.70;98.60
68485;DHT22;55472;50.060;21.960;2023-04-07T12:16:52;2.80;98.50
68485;DHT22;55472;50.060;21.960;2023-04-07T12:19:22;2.80;98.10
68485;DHT22;55472;50.060;21.960;2023-04-07T12:21:49;2.80;98.20
68485;DHT22;55472;50.060;21.960;2023-04-07T12:24:16;2.80;98.30
68485;DHT22;55472;50.060;21.960;2023-04-07T12:26:42;2.80;97.80
68485;DHT22;55472;50.060;21.960;2023-04-07T12:29:08;2.80;97.60
68485;DHT22;55472;50.060;21.960;2023-04-07T12:31:34;2.80;97.30
68485;DHT22;55472;50.060;21.960;2023-04-07T12:34:01;2.80;96.90
68485;DHT22;55472;50.060;21.960;2023-04-07T12:36:27;2.80;96.70
68485;DHT22;55472;50.060;21.960;2023-04-07T12:38:57;2.80;96.70
68485;DHT22;55472;50.060;21.960;2023-04-07T12:41:24;2.90;96.70
68485;DHT22;55472;50.060;21.960;2023-04-07T12:43:50;2.90;96.60
68485;DHT22;55472;50.060;21.960;2023-04-07T12:46:18;2.90;96.60
68485;DHT22;55472;50.060;21.960;2023-04-07T12:48:45;3.00;96.40
68485;DHT22;55472;50.060;21.960;2023-04-07T12:51:12;3.00;96.40
68485;DHT22;55472;50.060;21.960;2023-04-07T12:53:39;3.00;95.90
68485;DHT22;55472;50.060;21.960;2023-04-07T12:56:05;3.00;95.40
68485;DHT22;55472;50.060;21.960;2023-04-07T12:58:32;3.00;95.00
68485;DHT22;55472;50.060;21.960;2023-04-07T13:00:58;3.00;95.30
68485;DHT22;55472;50.060;21.960;2023-04-07T13:03:25;3.00;95.70
68485;DHT22;55472;50.060;21.960;2023-04-07T13:05:51;3.00;95.80
68485;DHT22;55472;50.060;21.960;2023-04-07T13:08:20;3.00;95.70
68485;DHT22;55472;50.060;21.960;2023-04-07T13:10:46;3.00;95.40
68485;DHT22;55472;50.060;21.960;2023-04-07T13:13:13;3.00;95.00
68485;DHT22;55472;50.060;21.960;2023-04-07T13:15:39;3.00;95.40
68485;DHT22;55472;50.060;21.960;2023-04-07T13:18:05;3.00;95.70
68485;DHT22;55472;50.060;21.960;2023-04-07T13:20:31;3.00;95.30
68485;DHT22;55472;50.060;21.960;2023-04-07T13:22:57;3.00;95.40
68485;DHT22;55472;50.060;21.960;2023-04-07T13:25:23;3.00;95.50
68485;DHT22;55472;50.060;21.960;2023-04-07T13:27:49;3.00;95.50
68485;DHT22;55472;50.060;21.960;2023-04-07T13:30:15;3.00;95.50
68485;DHT22;55472;50.060;21.960;2023-04-07T13:32:42;3.00;95.50
68485;DHT22;55472;50.060;21.960;2023-04-07T13:35:08;3.00;95.60
68485;DHT22;55472;50.060;21.960;2023-04-07T13:37:34;3.10;95.10
68485;DHT22;55472;50.060;21.960;2023-04-07T13:40:00;3.10;95.00
68485;DHT22;55472;50.060;21.960;2023-04-07T13:42:26;3.10;94.80
68485;DHT22;55472;50.060;21.960;2023-04-07T13:44:52;3.10;94.40
68485;DHT22;55472;50.060;21.960;2023-04-07T13:47:19;3.20;93.90
68485;DHT22;55472;50.060;21.960;2023-04-07T13:49:49;3.20;93.60
68485;DHT22;55472;50.060;21.960;2023-04-07T13:52:16;3.20;93.70
68485;DHT22;55472;50.060;21.960;2023-04-07T13:54:43;3.20;93.20
68485;DHT22;55472;50.060;21.960;2023-04-07T13:57:10;3.20;93.10
68485;DHT22;55472;50.060;21.960;2023-04-07T13:59:36;3.20;92.20
68485;DHT22;55472;50.060;21.960;2023-04-07T14:02:03;3.10;92.70
68485;DHT22;55472;50.060;21.960;2023-04-07T14:04:29;3.10;93.40
68485;DHT22;55472;50.060;21.960;2023-04-07T14:06:55;3.20;93.50
68485;DHT22;55472;50.060;21.960;2023-04-07T14:09:21;3.20;93.00
68485;DHT22;55472;50.060;21.960;2023-04-07T14:11:47;3.20;92.50
68485;DHT22;55472;50.060;21.960;2023-04-07T14:14:13;3.20;92.20
68485;DHT22;55472;50.060;21.960;2023-04-07T14:16:39;3.10;92.20
68485;DHT22;55472;50.060;21.960;2023-04-07T14:19:06;3.10;92.40
68485;DHT22;55472;50.060;21.960;2023-04-07T14:21:32;3.10;93.60
68485;DHT22;55472;50.060;21.960;2023-04-07T14:23:58;3.10;93.00
68485;DHT22;55472;50.060;21.960;2023-04-07T14:26:24;3.10;92.90
68485;DHT22;55472;50.060;21.960;2023-04-07T14:28:51;3.10;92.70
68485;DHT22;55472;50.060;21.960;2023-04-07T14:31:18;3.10;92.40
68485;DHT22;55472;50.060;21.960;2023-04-07T14:33:44;3.10;92.10
68485;DHT22;55472;50.060;21.960;2023-04-07T14:36:13;3.10;92.20
68485;DHT22;55472;50.060;21.960;2023-04-07T14:38:42;3.00;92.70
68485;DHT22;55472;50.060;21.960;2023-04-07T14:41:08;3.10;92.80
68485;DHT22;55472;50.060;21.960;2023-04-07T14:43:35;3.10;93.20
68485;DHT22;55472;50.060;21.960;2023-04-07T14:46:01;3.10;93.10
68485;DHT22;55472;50.060;21.960;2023-04-07T14:48:27;3.10;93.00
68485;DHT22;55472;50.060;21.960;2023-04-07T14:50:56;3.10;91.90
68485;DHT22;55472;50.060;21.960;2023-04-07T14:53:22;3.10;91.30
68485;DHT22;55472;50.060;21.960;2023-04-07T14:55:49;3.10;91.30
68485;DHT22;55472;50.060;21.960;2023-04-07T14:58:15;3.00;90.90
68485;DHT22;55472;50.060;21.960;2023-04-07T15:00:41;3.00;90.50
68485;DHT22;55472;50.060;21.960;2023-04-07T15:03:07;2.90;90.50
68485;DHT22;55472;50.060;21.960;2023-04-07T15:05:33;2.90;91.10
68485;DHT22;55472;50.060;21.960;2023-04-07T15:08:00;3.00;91.50
68485;DHT22;55472;50.060;21.960;2023-04-07T15:10:26;2.90;91.90
68485;DHT22;55472;50.060;21.960;2023-04-07T15:12:52;2.90;91.90
68485;DHT22;55472;50.060;21.960;2023-04-07T15:15:19;2.90;92.00
68485;DHT22;55472;50.060;21.960;2023-04-07T15:17:45;3.00;92.40
68485;DHT22;55472;50.060;21.960;2023-04-07T15:20:11;3.00;91.90
68485;DHT22;55472;50.060;21.960;2023-04-07T15:22:37;2.90;91.60
68485;DHT22;55472;50.060;21.960;2023-04-07T15:25:04;2.90;91.60
68485;DHT22;55472;50.060;21.960;2023-04-07T15:27:30;2.90;92.10
68485;DHT22;55472;50.060;21.960;2023-04-07T15:29:56;2.90;91.20
68485;DHT22;55472;50.060;21.960;2023-04-07T15:32:23;2.90;91.70
68485;DHT22;55472;50.060;21.960;2023-04-07T15:34:49;2.90;91.90
68485;DHT22;55472;50.060;21.960;2023-04-07T15:37:15;3.00;92.60
68485;DHT22;55472;50.060;21.960;2023-04-07T15:39:43;3.00;91.80
68485;DHT22;55472;50.060;21.960;2023-04-07T15:42:09;2.90;91.70
68485;DHT22;55472;50.060;21.960;2023-04-07T15:44:37;2.90;91.90
68485;DHT22;55472;50.060;21.960;2023-04-07T15:47:05;2.90;91.70
68485;DHT22;55472;50.060;21.960;2023-04-07T15:49:32;2.80;91.80
68485;DHT22;55472;50.060;21.960;2023-04-07T15:51:59;2.80;92.10